Time;durP1;ratioP1;P1;durP2;ratioP2;P2;SDS_P1;SDS_P2;PMS_P1;PMS_P2;Temp;Humidity;BMP_temperature;BMP_pressure;BME280_temperature;BME280_humidity;BME280_pressure;Samples;Min_cycle;Max_cycle;Signal;HPM_P1;HPM_P2
2020/12/04 00:00:15;;;;;;;13.57;7.53;;;4.80;93.40;;;;;;5033897;28;20530;-75
2020/12/04 00:02:40;;;;;;;12.60;7.03;;;4.80;93.40;;;;;;5033629;28;20072;-75
2020/12/04 00:05:07;;;;;;;13.55;8.20;;;4.80;93.40;;;;;;5030460;28;20112;-74
2020/12/04 00:07:32;;;;;;;13.98;8.45;;;4.80;93.40;;;;;;5029938;28;20044;-75
2020/12/04 00:09:58;;;;;;;10.60;7.13;;;4.80;93.40;;;;;;5031166;28;20045;-75
2020/12/04 00:12:24;;;;;;;12.27;7.05;;;4.80;93.30;;;;;;5017604;28;20026;-75
2020/12/04 00:14:50;;;;;;;13.27;7.03;;;4.70;93.20;;;;;;5020417;28;20080;-75
2020/12/04 00:17:16;;;;;;;10.70;6.93;;;4.80;93.20;;;;;;5025514;28;20029;-75
2020/12/04 00:19:44;;;;;;;11.63;7.22;;;4.80;93.20;;;;;;5026790;28;20133;-74
2020/12/04 00:22:10;;;;;;;13.75;6.88;;;4.80;93.20;;;;;;5028858;28;20075;-74
2020/12/04 00:24:36;;;;;;;11.30;6.78;;;4.80;93.20;;;;;;5022198;28;20380;-75
2020/12/04 00:27:01;;;;;;;10.68;6.78;;;4.80;93.20;;;;;;5022117;28;20108;-74
2020/12/04 00:29:27;;;;;;;12.18;7.25;;;4.80;93.20;;;;;;5013874;28;20057;-74
2020/12/04 00:31:57;;;;;;;12.45;6.97;;;4.80;93.20;;;;;;5025612;28;20045;-74
2020/12/04 00:34:23;;;;;;;10.75;7.00;;;4.80;93.20;;;;;;5034040;28;20038;-74
2020/12/04 00:36:50;;;;;;;11.63;6.82;;;4.80;93.20;;;;;;5033050;28;20096;-75
2020/12/04 00:39:16;;;;;;;10.68;6.40;;;4.80;93.20;;;;;;5015854;28;20034;-74
2020/12/04 00:41:43;;;;;;;14.40;7.25;;;4.80;93.20;;;;;;5014150;28;20030;-74
2020/12/04 00:44:08;;;;;;;11.20;7.28;;;4.80;93.20;;;;;;5025892;28;20028;-74
2020/12/04 00:46:34;;;;;;;12.07;7.28;;;4.80;93.10;;;;;;5031646;28;20045;-74
2020/12/04 00:49:00;;;;;;;11.18;6.78;;;4.80;93.10;;;;;;5033354;28;20025;-74
2020/12/04 00:51:26;;;;;;;13.40;6.53;;;4.80;93.10;;;;;;5025972;28;20484;-74
2020/12/04 00:53:51;;;;;;;13.23;7.05;;;4.80;93.10;;;;;;5032209;28;20017;-74
2020/12/04 00:56:17;;;;;;;11.32;6.75;;;4.80;93.10;;;;;;5024706;28;20028;-74
2020/12/04 00:58:45;;;;;;;10.07;6.78;;;4.80;93.10;;;;;;5015655;28;20033;-74
2020/12/04 01:01:10;;;;;;;12.48;7.18;;;4.80;93.20;;;;;;5025752;28;20033;-74
2020/12/04 01:03:36;;;;;;;11.50;6.45;;;4.80;93.10;;;;;;5024149;28;20041;-75
2020/12/04 01:06:01;;;;;;;11.73;7.43;;;4.80;93.10;;;;;;5031615;28;20034;-74
2020/12/04 01:08:27;;;;;;;10.93;6.57;;;4.80;93.20;;;;;;5015652;28;20030;-74
2020/12/04 01:10:53;;;;;;;11.88;7.28;;;4.80;93.10;;;;;;5030504;28;20030;-75
2020/12/04 01:13:18;;;;;;;13.32;8.32;;;4.80;93.10;;;;;;5032233;28;20443;-74
2020/12/04 01:15:44;;;;;;;10.95;6.85;;;4.80;93.10;;;;;;5024732;28;20034;-75
2020/12/04 01:18:09;;;;;;;9.98;5.82;;;4.80;93.10;;;;;;5020351;28;20030;-75
2020/12/04 01:20:34;;;;;;;10.27;5.55;;;4.80;93.10;;;;;;5016470;28;20053;-74
2020/12/04 01:23:00;;;;;;;13.68;7.70;;;4.80;93.10;;;;;;5035233;28;20167;-74
2020/12/04 01:25:26;;;;;;;12.15;7.70;;;4.80;93.10;;;;;;5030798;28;20030;-74
2020/12/04 01:27:51;;;;;;;10.48;6.68;;;4.80;93.10;;;;;;5019069;28;20026;-74
2020/12/04 01:30:17;;;;;;;11.90;7.80;;;4.70;93.10;;;;;;5060074;28;20056;-74
2020/12/04 01:32:42;;;;;;;12.45;7.65;;;4.70;93.10;;;;;;5031366;28;20040;-75
2020/12/04 01:35:07;;;;;;;11.23;7.07;;;4.70;93.10;;;;;;5027552;28;20025;-74
2020/12/04 01:37:33;;;;;;;11.50;6.72;;;4.70;93.10;;;;;;5027365;28;20087;-74
2020/12/04 01:39:58;;;;;;;10.85;6.85;;;4.70;93.10;;;;;;5024524;28;20097;-74
2020/12/04 01:42:24;;;;;;;13.07;7.15;;;4.70;93.20;;;;;;5027752;28;20026;-75
2020/12/04 01:44:49;;;;;;;10.82;6.80;;;4.70;93.20;;;;;;5018067;28;20027;-74
2020/12/04 01:47:17;;;;;;;12.05;7.00;;;4.70;93.20;;;;;;5025514;28;20124;-73
2020/12/04 01:49:43;;;;;;;10.43;6.40;;;4.70;93.30;;;;;;5023423;28;20088;-73
2020/12/04 01:52:09;;;;;;;10.30;6.45;;;4.70;93.30;;;;;;5025154;28;20867;-73
2020/12/04 01:54:34;;;;;;;13.25;7.15;;;4.70;93.30;;;;;;5027966;28;20476;-73
2020/12/04 01:57:01;;;;;;;15.02;7.63;;;4.70;93.30;;;;;;5016993;28;20037;-73
2020/12/04 01:59:27;;;;;;;12.68;7.22;;;4.70;93.40;;;;;;5019288;28;20108;-73
2020/12/04 02:02:08;;;;;;;12.35;7.20;;;4.70;93.40;;;;;;5022110;28;20102;-73
2020/12/04 02:04:33;;;;;;;11.65;6.90;;;4.70;93.40;;;;;;5031713;28;20108;-73
2020/12/04 02:07:07;;;;;;;11.77;7.50;;;4.70;93.50;;;;;;5030868;28;20097;-73
2020/12/04 02:09:40;;;;;;;10.70;6.40;;;4.70;93.50;;;;;;5012983;28;20030;-73
2020/12/04 02:12:08;;;;;;;11.32;6.63;;;4.70;93.60;;;;;;5023495;28;20029;-73
2020/12/04 02:14:34;;;;;;;11.43;7.20;;;4.70;93.60;;;;;;5035269;28;20026;-73
2020/12/04 02:17:01;;;;;;;12.15;7.25;;;4.70;93.60;;;;;;5025484;28;20385;-73
2020/12/04 02:19:27;;;;;;;10.68;6.85;;;4.60;93.60;;;;;;5026833;28;20029;-74
2020/12/04 02:21:53;;;;;;;10.90;6.53;;;4.60;93.60;;;;;;5036201;28;20144;-74
2020/12/04 02:24:24;;;;;;;10.80;7.18;;;4.60;93.70;;;;;;5031345;28;20029;-74
2020/12/04 02:26:50;;;;;;;11.70;7.47;;;4.60;93.70;;;;;;5032954;28;20029;-75
2020/12/04 02:29:15;;;;;;;13.20;8.30;;;4.60;93.80;;;;;;5029588;28;20503;-73
2020/12/04 02:31:41;;;;;;;10.65;6.95;;;4.60;93.80;;;;;;5031002;28;20106;-72
2020/12/04 02:34:06;;;;;;;11.52;7.22;;;4.60;93.80;;;;;;5035900;28;20030;-73
2020/12/04 02:36:32;;;;;;;10.57;6.55;;;4.60;93.80;;;;;;5038863;28;20025;-74
2020/12/04 02:38:57;;;;;;;12.90;7.25;;;4.60;93.90;;;;;;5038920;28;20096;-74
2020/12/04 02:41:23;;;;;;;10.13;6.70;;;4.60;93.90;;;;;;5038228;28;20036;-73
2020/12/04 02:43:48;;;;;;;10.55;6.60;;;4.60;93.90;;;;;;5040329;28;20381;-74
2020/12/04 02:46:14;;;;;;;12.95;6.95;;;4.60;93.90;;;;;;5033690;28;20091;-74
2020/12/04 02:48:39;;;;;;;11.30;7.00;;;4.60;94.00;;;;;;5033784;28;20037;-74
2020/12/04 02:51:08;;;;;;;10.50;7.07;;;4.60;93.90;;;;;;5028128;28;20038;-74
2020/12/04 02:53:34;;;;;;;9.80;5.90;;;4.60;93.90;;;;;;5035663;28;20025;-74
2020/12/04 02:56:00;;;;;;;9.98;6.22;;;4.60;94.00;;;;;;5029664;28;20029;-74
2020/12/04 02:58:26;;;;;;;8.80;5.80;;;4.60;94.00;;;;;;5021415;28;20045;-74
2020/12/04 03:00:51;;;;;;;9.75;5.75;;;4.60;94.00;;;;;;5031544;28;20060;-74
2020/12/04 03:03:17;;;;;;;8.75;5.53;;;4.60;94.00;;;;;;5040011;28;20029;-74
2020/12/04 03:05:42;;;;;;;9.48;5.80;;;4.60;94.00;;;;;;5035167;28;20025;-74
2020/12/04 03:08:08;;;;;;;9.70;5.43;;;4.60;94.00;;;;;;5039155;28;20017;-74
2020/12/04 03:10:33;;;;;;;9.18;5.68;;;4.60;94.00;;;;;;5037549;28;20025;-74
2020/12/04 03:12:59;;;;;;;10.73;6.20;;;4.60;94.00;;;;;;5031130;28;20075;-74
2020/12/04 03:15:25;;;;;;;9.80;5.90;;;4.60;94.00;;;;;;5034300;28;20029;-74
2020/12/04 03:17:50;;;;;;;10.23;6.07;;;4.60;94.00;;;;;;5034343;28;20097;-73
2020/12/04 03:20:16;;;;;;;8.48;5.28;;;4.60;94.00;;;;;;5033057;28;20029;-73
2020/12/04 03:22:41;;;;;;;10.35;6.18;;;4.60;94.30;;;;;;5032363;28;21766;-73
2020/12/04 03:25:07;;;;;;;6.97;4.45;;;4.60;93.90;;;;;;5023260;28;20084;-74
2020/12/04 03:27:33;;;;;;;8.57;5.05;;;4.60;93.90;;;;;;5033431;28;20041;-74
2020/12/04 03:29:58;;;;;;;8.77;5.35;;;4.60;93.90;;;;;;5020768;28;20029;-73
2020/12/04 03:32:24;;;;;;;8.95;5.15;;;4.60;93.90;;;;;;5017729;28;20034;-74
2020/12/04 03:34:50;;;;;;;8.50;5.20;;;4.60;94.00;;;;;;5034516;28;20033;-73
2020/12/04 03:37:15;;;;;;;7.45;4.53;;;4.60;94.00;;;;;;5032881;28;20021;-74
2020/12/04 03:39:44;;;;;;;6.80;4.40;;;4.70;94.00;;;;;;5021061;28;20038;-73
2020/12/04 03:42:09;;;;;;;7.43;4.55;;;4.70;94.00;;;;;;5026329;28;20033;-74
2020/12/04 03:44:35;;;;;;;8.02;4.60;;;4.70;93.90;;;;;;5017333;28;20079;-73
2020/12/04 03:47:00;;;;;;;8.23;5.05;;;4.80;93.90;;;;;;5020625;28;20518;-74
2020/12/04 03:49:26;;;;;;;11.43;5.38;;;4.80;93.80;;;;;;5025737;28;20030;-75
2020/12/04 03:51:52;;;;;;;8.73;5.15;;;4.80;93.80;;;;;;5024123;28;20495;-72
2020/12/04 03:54:17;;;;;;;8.80;5.72;;;4.80;93.70;;;;;;5033924;28;20075;-72
2020/12/04 03:56:43;;;;;;;8.50;4.78;;;4.80;93.70;;;;;;5028572;28;20025;-72
2020/12/04 03:59:08;;;;;;;8.27;4.88;;;4.80;93.70;;;;;;5033449;28;20021;-72
2020/12/04 04:01:34;;;;;;;8.65;4.10;;;4.80;93.70;;;;;;5031522;28;20395;-73
2020/12/04 04:04:00;;;;;;;8.38;5.03;;;4.80;94.00;;;;;;5033251;28;20033;-73
2020/12/04 04:06:26;;;;;;;11.45;4.50;;;4.90;93.70;;;;;;5022180;28;20033;-74
2020/12/04 04:08:52;;;;;;;7.50;4.28;;;4.80;93.70;;;;;;5020903;28;20488;-74
2020/12/04 04:11:18;;;;;;;6.90;4.28;;;4.80;93.70;;;;;;5025258;28;20157;-74
2020/12/04 04:13:43;;;;;;;7.75;5.10;;;4.80;93.70;;;;;;5038271;28;20021;-74
2020/12/04 04:16:09;;;;;;;7.57;4.60;;;4.80;93.70;;;;;;5032625;28;20030;-74
2020/12/04 04:18:34;;;;;;;6.53;3.40;;;4.90;93.70;;;;;;5033728;28;20052;-75
2020/12/04 04:21:01;;;;;;;5.78;3.45;;;4.80;93.70;;;;;;5028219;28;20384;-74
2020/12/04 04:23:27;;;;;;;6.28;3.53;;;4.90;93.80;;;;;;5036359;28;20025;-75
2020/12/04 04:25:53;;;;;;;7.38;4.30;;;4.90;93.70;;;;;;5023732;28;20040;-75
2020/12/04 04:28:19;;;;;;;5.50;3.75;;;4.90;93.70;;;;;;5018493;28;20104;-74
2020/12/04 04:30:44;;;;;;;5.95;3.75;;;5.00;93.70;;;;;;5030559;28;20036;-75
2020/12/04 04:33:10;;;;;;;5.43;3.53;;;5.00;93.70;;;;;;5029289;28;20697;-72
2020/12/04 04:35:36;;;;;;;5.80;3.10;;;5.00;93.60;;;;;;5032939;28;20029;-73
2020/12/04 04:38:02;;;;;;;6.10;3.92;;;5.10;93.60;;;;;;5031575;28;20026;-73
2020/12/04 04:40:28;;;;;;;6.95;3.85;;;5.10;93.50;;;;;;5029446;28;20022;-74
2020/12/04 04:43:14;;;;;;;6.55;3.33;;;5.00;93.40;;;;;;5025185;28;20484;-74
2020/12/04 04:45:40;;;;;;;6.18;3.10;;;5.10;93.40;;;;;;5029495;28;20052;-74
2020/12/04 04:48:17;;;;;;;6.82;3.08;;;5.00;93.40;;;;;;5048405;28;20071;-75
2020/12/04 04:50:46;;;;;;;6.60;2.35;;;5.10;93.40;;;;;;5032189;28;20025;-74
2020/12/04 04:53:13;;;;;;;3.83;2.47;;;5.10;93.30;;;;;;5030033;28;20092;-74
2020/12/04 04:55:42;;;;;;;5.30;2.80;;;5.10;93.30;;;;;;5036157;28;20017;-74
2020/12/04 04:58:08;;;;;;;6.85;3.22;;;5.10;93.30;;;;;;5053031;28;20022;-74
2020/12/04 05:00:34;;;;;;;4.90;2.65;;;5.10;93.20;;;;;;5021465;28;20065;-74
2020/12/04 05:02:59;;;;;;;3.80;2.25;;;5.10;93.10;;;;;;5033430;28;20534;-73
2020/12/04 05:05:42;;;;;;;3.88;2.42;;;5.00;93.10;;;;;;5032185;28;20399;-74
2020/12/04 05:08:18;;;;;;;3.55;2.03;;;5.00;93.10;;;;;;5025328;28;20021;-73
2020/12/04 05:10:44;;;;;;;3.15;1.80;;;4.90;93.20;;;;;;5015453;28;20038;-73
2020/12/04 05:13:11;;;;;;;3.50;1.92;;;4.90;93.20;;;;;;5022995;28;20037;-74
2020/12/04 05:15:37;;;;;;;3.40;1.90;;;5.00;93.20;;;;;;5033201;28;20380;-74
2020/12/04 05:18:08;;;;;;;3.13;1.83;;;4.90;93.20;;;;;;5041263;28;20040;-74
2020/12/04 05:20:34;;;;;;;4.22;1.73;;;5.00;93.20;;;;;;5027811;28;20385;-74
2020/12/04 05:23:01;;;;;;;4.18;2.25;;;5.00;93.20;;;;;;5024233;28;20129;-74
2020/12/04 05:25:33;;;;;;;4.13;2.63;;;5.00;93.20;;;;;;5023854;28;20102;-73
2020/12/04 05:28:12;;;;;;;4.13;1.67;;;5.00;93.10;;;;;;5015295;28;20038;-74
2020/12/04 05:30:39;;;;;;;3.33;1.50;;;5.00;93.10;;;;;;5025878;28;20084;-74
2020/12/04 05:33:06;;;;;;;3.15;1.42;;;4.90;93.00;;;;;;5017710;28;20053;-73
2020/12/04 05:35:32;;;;;;;2.90;1.63;;;5.00;93.10;;;;;;5027089;28;20025;-73
2020/12/04 05:38:06;;;;;;;4.07;1.85;;;4.90;93.10;;;;;;5025645;28;20042;-75
2020/12/04 05:40:34;;;;;;;3.72;1.50;;;5.00;93.20;;;;;;5024553;28;20033;-74
2020/12/04 05:43:00;;;;;;;3.13;1.45;;;5.00;93.20;;;;;;5023029;28;20033;-75
2020/12/04 05:45:26;;;;;;;2.55;1.30;;;5.00;93.50;;;;;;5043118;28;20373;-75
2020/12/04 05:47:52;;;;;;;3.28;1.60;;;5.00;93.10;;;;;;5030762;28;20124;-75
2020/12/04 05:50:17;;;;;;;4.47;1.30;;;5.00;93.10;;;;;;5030323;28;20124;-75
2020/12/04 05:52:43;;;;;;;3.35;1.95;;;5.00;93.00;;;;;;5024866;28;20065;-75
2020/12/04 05:55:10;;;;;;;3.08;1.48;;;5.00;93.00;;;;;;5025328;28;20052;-74
2020/12/04 05:57:55;;;;;;;3.38;1.77;;;5.00;93.00;;;;;;5045959;28;20026;-75
2020/12/04 06:00:21;;;;;;;3.03;1.40;;;5.00;93.00;;;;;;5034466;28;20033;-74
2020/12/04 06:03:00;;;;;;;3.00;1.20;;;4.90;93.00;;;;;;5042368;28;20045;-75
2020/12/04 06:05:27;;;;;;;3.08;1.42;;;5.00;93.00;;;;;;5017173;28;20033;-74
2020/12/04 06:08:01;;;;;;;3.00;1.20;;;4.90;92.90;;;;;;5027516;28;20129;-75
2020/12/04 06:10:29;;;;;;;3.00;1.33;;;4.90;93.00;;;;;;5036151;28;20061;-75
2020/12/04 06:12:55;;;;;;;2.92;1.33;;;4.90;93.00;;;;;;5031520;28;20022;-74
2020/12/04 06:15:28;;;;;;;2.75;1.10;;;4.90;93.10;;;;;;5017725;28;20106;-75
2020/12/04 06:18:08;;;;;;;3.20;1.05;;;4.90;93.20;;;;;;5022870;28;20014;-75
2020/12/04 06:20:42;;;;;;;2.85;1.20;;;5.00;93.10;;;;;;5027633;28;20041;-75
2020/12/04 06:23:13;;;;;;;3.22;1.15;;;5.00;93.10;;;;;;5034677;28;20036;-75
2020/12/04 06:25:51;;;;;;;3.40;1.40;;;5.00;93.10;;;;;;5035005;28;20025;-74
2020/12/04 06:28:18;;;;;;;2.92;1.20;;;5.10;93.20;;;;;;5031328;28;20025;-74
2020/12/04 06:31:00;;;;;;;3.03;1.08;;;5.10;93.20;;;;;;5035096;28;20125;-74
2020/12/04 06:33:36;;;;;;;2.33;1.20;;;5.20;93.10;;;;;;5028374;28;20029;-74
2020/12/04 06:36:03;;;;;;;2.70;1.08;;;5.30;93.00;;;;;;5046033;28;20040;-74
2020/12/04 06:38:35;;;;;;;2.35;1.20;;;5.20;93.00;;;;;;5037969;28;20038;-74
2020/12/04 06:41:23;;;;;;;2.90;1.43;;;5.20;93.00;;;;;;5030249;28;20036;-74
2020/12/04 06:43:54;;;;;;;2.30;1.00;;;5.30;93.00;;;;;;5034716;28;20021;-74
2020/12/04 06:46:33;;;;;;;3.53;1.08;;;5.30;93.00;;;;;;5033334;28;20042;-74
2020/12/04 06:49:22;;;;;;;2.95;1.13;;;5.40;93.00;;;;;;5031328;28;20036;-74
2020/12/04 06:52:00;;;;;;;2.63;1.17;;;5.40;92.90;;;;;;5036662;28;20033;-74
2020/12/04 06:54:27;;;;;;;2.28;0.80;;;5.50;92.90;;;;;;5040126;28;20021;-74
2020/12/04 06:56:54;;;;;;;1.98;1.00;;;5.50;92.80;;;;;;5025803;28;20356;-74
2020/12/04 06:59:30;;;;;;;3.85;0.73;;;5.50;92.80;;;;;;5028902;28;20029;-75
2020/12/04 07:02:01;;;;;;;2.63;0.75;;;5.50;92.80;;;;;;5037585;28;20096;-74
2020/12/04 07:04:28;;;;;;;1.80;0.70;;;5.60;92.80;;;;;;5032544;28;20025;-74
2020/12/04 07:07:01;;;;;;;2.03;0.70;;;5.60;92.70;;;;;;5034657;28;20482;-74
2020/12/04 07:09:27;;;;;;;1.88;0.80;;;5.70;92.70;;;;;;5034468;28;20029;-74
2020/12/04 07:11:53;;;;;;;2.40;1.13;;;5.70;92.60;;;;;;5028722;28;20030;-74
2020/12/04 07:14:21;;;;;;;1.45;0.60;;;5.80;92.50;;;;;;5028510;28;20018;-75
2020/12/04 07:16:48;;;;;;;1.70;0.65;;;5.80;92.50;;;;;;5025130;28;20451;-74
2020/12/04 07:19:14;;;;;;;2.42;0.75;;;5.90;92.40;;;;;;5031586;28;20021;-74
2020/12/04 07:21:41;;;;;;;1.48;0.60;;;6.00;92.40;;;;;;5033771;28;20102;-74
2020/12/04 07:24:07;;;;;;;1.20;0.40;;;6.00;92.30;;;;;;5032583;28;20041;-74
2020/12/04 07:26:34;;;;;;;1.35;0.40;;;6.10;92.10;;;;;;5039262;28;20036;-73
2020/12/04 07:28:59;;;;;;;2.25;0.50;;;6.20;92.10;;;;;;5034014;28;20032;-75
2020/12/04 07:31:25;;;;;;;1.05;0.40;;;6.30;92.00;;;;;;5025912;28;20026;-75
2020/12/04 07:33:55;;;;;;;2.13;0.52;;;6.30;91.90;;;;;;5022604;28;20057;-74
2020/12/04 07:36:21;;;;;;;1.17;0.40;;;6.30;91.80;;;;;;5032054;28;20029;-75
2020/12/04 07:38:51;;;;;;;1.42;0.70;;;6.30;91.70;;;;;;5021218;28;20033;-75
2020/12/04 07:41:31;;;;;;;3.40;0.50;;;6.30;91.70;;;;;;5029489;28;20033;-75
2020/12/04 07:44:01;;;;;;;1.25;0.40;;;6.30;91.70;;;;;;5033973;28;20030;-74
2020/12/04 07:46:28;;;;;;;2.13;0.50;;;6.30;91.70;;;;;;5017098;28;20053;-73
2020/12/04 07:49:12;;;;;;;2.83;0.40;;;6.30;91.70;;;;;;5031048;28;20083;-72
2020/12/04 07:51:40;;;;;;;1.98;0.40;;;6.30;91.70;;;;;;5029120;28;20044;-75
2020/12/04 07:54:18;;;;;;;1.80;0.40;;;6.40;91.70;;;;;;5028606;28;20017;-75
2020/12/04 07:56:51;;;;;;;1.25;0.40;;;6.40;91.70;;;;;;5042367;28;20029;-74
2020/12/04 07:59:23;;;;;;;2.25;0.50;;;6.40;91.60;;;;;;5040864;28;20033;-73
2020/12/04 08:01:49;;;;;;;2.58;0.40;;;6.40;91.60;;;;;;5029406;28;20113;-74
2020/12/04 08:04:19;;;;;;;1.27;0.40;;;6.40;91.60;;;;;;5033009;28;20160;-73
2020/12/04 08:06:45;;;;;;;1.05;0.30;;;6.40;91.50;;;;;;5034396;28;20018;-73
2020/12/04 08:09:17;;;;;;;2.88;0.30;;;6.50;91.50;;;;;;5015960;28;20108;-74
2020/12/04 08:11:56;;;;;;;1.63;0.30;;;6.40;91.50;;;;;;5021739;28;20029;-75
2020/12/04 08:14:34;;;;;;;1.20;0.50;;;6.40;91.60;;;;;;5021654;28;20018;-74
2020/12/04 08:17:00;;;;;;;1.42;0.30;;;6.50;91.60;;;;;;5023532;28;20025;-73
2020/12/04 08:19:30;;;;;;;0.55;0.10;;;6.60;91.50;;;;;;5032563;28;20022;-74
2020/12/04 08:22:02;;;;;;;1.58;0.08;;;6.60;90.90;;;;;;5034248;28;20472;-73
2020/12/04 08:24:50;;;;;;;1.07;0.10;;;6.80;90.60;;;;;;5017902;28;20456;-74
2020/12/04 08:27:16;;;;;;;1.23;0.10;;;7.00;90.00;;;;;;5038644;28;20128;-73
2020/12/04 08:29:43;;;;;;;0.20;0.00;;;7.10;88.60;;;;;;5025236;28;20108;-74
2020/12/04 08:32:12;;;;;;;0.75;0.13;;;7.20;87.80;;;;;;5023877;28;20476;-73
2020/12/04 08:34:39;;;;;;;0.28;0.00;;;7.20;86.80;;;;;;5032406;28;20017;-73
2020/12/04 08:37:07;;;;;;;0.25;0.00;;;7.30;86.20;;;;;;5025557;28;20048;-73
2020/12/04 08:39:40;;;;;;;0.52;0.10;;;7.40;86.20;;;;;;5030199;28;20029;-73
2020/12/04 08:42:16;;;;;;;0.88;0.08;;;7.40;86.60;;;;;;5026349;28;20033;-74
2020/12/04 08:44:43;;;;;;;0.35;0.10;;;7.50;86.20;;;;;;5030425;28;20033;-73
2020/12/04 08:47:09;;;;;;;0.32;0.00;;;7.50;86.10;;;;;;5028589;28;20053;-73
2020/12/04 08:49:34;;;;;;;0.65;0.00;;;7.60;86.40;;;;;;5025864;28;20471;-74
2020/12/04 08:52:03;;;;;;;0.98;0.05;;;7.60;85.20;;;;;;5049199;28;20483;-74
2020/12/04 08:54:28;;;;;;;0.10;0.00;;;7.60;84.50;;;;;;5032510;28;20108;-74
2020/12/04 08:56:57;;;;;;;0.28;0.00;;;7.70;84.20;;;;;;5032301;28;20100;-74
2020/12/04 08:59:28;;;;;;;0.03;0.00;;;7.70;83.60;;;;;;5029595;28;20029;-75
2020/12/04 09:01:54;;;;;;;0.63;0.00;;;7.70;83.40;;;;;;5042604;28;20039;-73
2020/12/04 09:04:24;;;;;;;0.10;0.00;;;7.80;83.40;;;;;;5051212;28;20107;-73
2020/12/04 09:06:49;;;;;;;0.38;0.00;;;7.70;83.50;;;;;;5031811;28;20036;-73
2020/12/04 09:09:15;;;;;;;0.43;0.10;;;7.80;84.00;;;;;;5039291;28;20025;-73
2020/12/04 09:11:40;;;;;;;0.68;0.20;;;7.80;83.20;;;;;;5020411;28;20510;-73
2020/12/04 09:14:06;;;;;;;0.63;0.00;;;7.80;83.10;;;;;;5025464;28;20033;-73
2020/12/04 09:16:31;;;;;;;1.10;0.00;;;7.80;83.20;;;;;;5031472;28;20029;-73
2020/12/04 09:18:57;;;;;;;0.30;0.10;;;7.90;83.20;;;;;;5028472;28;20028;-74
2020/12/04 09:21:22;;;;;;;0.30;0.00;;;7.90;83.00;;;;;;5018592;28;20045;-75
2020/12/04 09:23:48;;;;;;;3.78;0.03;;;7.90;81.60;;;;;;5027143;28;20068;-74
2020/12/04 09:26:13;;;;;;;1.33;0.00;;;7.80;81.70;;;;;;5028234;28;20037;-73
2020/12/04 09:28:39;;;;;;;2.42;0.00;;;7.90;82.20;;;;;;5031862;28;20105;-73
2020/12/04 09:31:04;;;;;;;0.15;0.00;;;7.80;81.90;;;;;;5029625;28;20034;-73
2020/12/04 09:33:31;;;;;;;0.45;0.00;;;7.80;81.50;;;;;;5028720;28;20365;-73
2020/12/04 09:35:56;;;;;;;0.25;0.00;;;7.80;81.70;;;;;;5031814;28;20021;-73
2020/12/04 09:38:22;;;;;;;0.45;0.00;;;7.80;81.50;;;;;;5027396;28;20036;-73
2020/12/04 09:40:47;;;;;;;0.10;0.00;;;7.80;80.90;;;;;;5031381;28;20021;-74
2020/12/04 09:43:13;;;;;;;0.32;0.00;;;7.80;81.20;;;;;;5018755;28;20116;-74
2020/12/04 09:45:38;;;;;;;0.32;0.00;;;7.70;80.90;;;;;;5027134;28;20499;-74
2020/12/04 09:48:04;;;;;;;4.55;0.20;;;7.70;81.00;;;;;;5032621;28;20041;-74
2020/12/04 09:50:30;;;;;;;0.52;0.00;;;7.60;80.60;;;;;;5028346;28;20022;-74
2020/12/04 09:52:55;;;;;;;0.40;0.10;;;7.50;80.90;;;;;;5030446;28;20022;-75
2020/12/04 09:55:23;;;;;;;0.75;0.10;;;7.50;80.60;;;;;;5021741;28;20362;-75
2020/12/04 09:57:48;;;;;;;0.50;0.00;;;7.40;80.70;;;;;;5027898;28;20029;-72
2020/12/04 10:00:14;;;;;;;0.10;0.00;;;7.50;80.90;;;;;;5019877;28;20034;-73
2020/12/04 10:02:39;;;;;;;0.75;0.10;;;7.50;81.20;;;;;;5020551;28;20034;-73
2020/12/04 10:05:05;;;;;;;0.60;0.10;;;7.50;81.50;;;;;;5032514;28;20025;-73
2020/12/04 10:07:31;;;;;;;0.20;0.00;;;7.50;81.70;;;;;;5032114;28;20383;-73
2020/12/04 10:09:56;;;;;;;0.80;0.10;;;7.60;81.90;;;;;;5015807;28;20034;-74
2020/12/04 10:12:22;;;;;;;0.15;0.00;;;7.70;81.70;;;;;;5024986;28;20030;-73
2020/12/04 10:14:47;;;;;;;0.20;0.03;;;7.70;80.90;;;;;;5028133;28;20025;-73
2020/12/04 10:17:13;;;;;;;0.32;0.10;;;7.80;81.10;;;;;;5040431;28;20026;-75
2020/12/04 10:19:38;;;;;;;0.45;0.10;;;7.90;80.80;;;;;;5026332;28;20033;-74
2020/12/04 10:22:04;;;;;;;1.05;0.08;;;7.90;80.30;;;;;;5031289;28;20033;-75
2020/12/04 10:24:30;;;;;;;0.50;0.10;;;8.00;79.60;;;;;;5026708;28;20506;-75
2020/12/04 10:26:55;;;;;;;0.20;0.00;;;8.00;78.60;;;;;;5018908;28;20160;-75
2020/12/04 10:29:21;;;;;;;0.22;0.00;;;8.00;79.10;;;;;;5026906;28;20108;-75
2020/12/04 10:31:47;;;;;;;0.85;0.10;;;8.00;78.20;;;;;;5030850;28;20102;-75
2020/12/04 10:34:13;;;;;;;0.50;0.08;;;8.00;78.10;;;;;;5022798;28;20459;-75
2020/12/04 10:36:40;;;;;;;0.10;0.00;;;8.00;77.70;;;;;;5029582;28;20087;-75
2020/12/04 10:39:08;;;;;;;0.10;0.00;;;7.90;77.50;;;;;;5029313;28;20391;-75
2020/12/04 10:41:37;;;;;;;0.35;0.00;;;7.90;77.10;;;;;;5028042;28;20034;-74
2020/12/04 10:44:04;;;;;;;0.30;0.10;;;7.90;77.60;;;;;;5029706;28;20372;-74
2020/12/04 10:46:31;;;;;;;0.38;0.00;;;7.90;77.50;;;;;;5033043;28;20041;-74
2020/12/04 10:48:57;;;;;;;0.20;0.10;;;7.90;77.40;;;;;;5029163;28;20030;-74
2020/12/04 10:51:22;;;;;;;0.22;0.10;;;7.90;77.60;;;;;;5030983;28;20029;-74
2020/12/04 10:53:49;;;;;;;0.28;0.00;;;7.90;77.30;;;;;;5028774;28;20069;-74
2020/12/04 10:56:21;;;;;;;0.65;0.00;;;8.00;77.50;;;;;;5031465;28;20017;-75
2020/12/04 10:58:48;;;;;;;0.10;0.00;;;8.00;77.90;;;;;;5048174;28;20045;-73
2020/12/04 11:01:16;;;;;;;0.40;0.00;;;8.00;78.20;;;;;;5029783;28;20033;-75
2020/12/04 11:06:19;;;;;;;1.20;0.10;;;8.00;77.60;;;;;;5025940;28;20026;-73
2020/12/04 11:08:46;;;;;;;0.88;0.03;;;8.00;78.10;;;;;;5031396;28;20117;-73
2020/12/04 11:11:12;;;;;;;0.22;0.00;;;8.10;78.20;;;;;;5030391;28;20116;-73
2020/12/04 11:13:38;;;;;;;0.35;0.10;;;8.10;76.40;;;;;;5028267;28;20108;-73
2020/12/04 11:16:06;;;;;;;0.40;0.03;;;8.10;76.50;;;;;;5029170;28;20149;-72
2020/12/04 11:18:31;;;;;;;0.35;0.00;;;8.10;77.10;;;;;;5018819;28;20101;-73
2020/12/04 11:20:57;;;;;;;0.40;0.00;;;8.10;77.00;;;;;;5023187;28;20148;-73
2020/12/04 11:23:22;;;;;;;0.60;0.10;;;8.10;77.00;;;;;;5032132;28;20037;-72
2020/12/04 11:25:48;;;;;;;0.20;0.00;;;8.20;77.40;;;;;;5026277;28;20033;-73
2020/12/04 11:28:14;;;;;;;0.03;0.00;;;8.20;77.40;;;;;;5022759;28;20033;-72
2020/12/04 11:30:39;;;;;;;0.30;0.10;;;8.30;77.30;;;;;;5025755;28;20037;-73
2020/12/04 11:33:05;;;;;;;0.08;0.00;;;8.30;77.30;;;;;;5031416;28;20030;-73
2020/12/04 11:35:31;;;;;;;0.43;0.00;;;8.30;76.70;;;;;;5029710;28;20033;-72
2020/12/04 11:37:57;;;;;;;0.55;0.10;;;8.40;76.50;;;;;;5036958;28;20032;-72
2020/12/04 11:40:24;;;;;;;0.47;0.10;;;8.40;76.30;;;;;;5031406;28;20030;-73
2020/12/04 11:42:49;;;;;;;0.30;0.10;;;8.30;76.20;;;;;;5020601;28;20021;-73
2020/12/04 11:45:15;;;;;;;0.20;0.03;;;8.30;76.50;;;;;;5020487;28;20112;-73
2020/12/04 11:47:42;;;;;;;0.55;0.00;;;8.30;76.30;;;;;;5024401;28;20045;-73
2020/12/04 11:50:13;;;;;;;0.73;0.00;;;8.20;76.40;;;;;;5027360;28;20033;-73
2020/12/04 11:52:39;;;;;;;1.42;0.00;;;8.10;77.40;;;;;;5035078;28;20021;-73
2020/12/04 11:55:16;;;;;;;1.77;0.10;;;8.10;76.90;;;;;;5033688;28;20107;-73
2020/12/04 11:57:42;;;;;;;0.68;0.00;;;8.10;77.30;;;;;;5021718;28;20025;-73
2020/12/04 12:00:10;;;;;;;0.50;0.10;;;8.10;77.40;;;;;;5026367;28;20112;-73
2020/12/04 12:02:35;;;;;;;1.00;0.13;;;8.10;77.50;;;;;;5033410;28;20534;-73
2020/12/04 12:05:01;;;;;;;0.85;0.10;;;8.10;78.00;;;;;;5030020;28;20038;-73
2020/12/04 12:07:27;;;;;;;0.50;0.10;;;8.10;78.00;;;;;;5026445;28;20372;-73
2020/12/04 12:09:52;;;;;;;1.00;0.10;;;8.10;78.30;;;;;;5029803;28;20462;-72
2020/12/04 12:12:19;;;;;;;0.35;0.10;;;8.10;78.50;;;;;;5030888;28;20040;-72
2020/12/04 12:14:45;;;;;;;0.65;0.10;;;8.10;78.60;;;;;;5027219;28;20045;-72
2020/12/04 12:17:14;;;;;;;0.70;0.10;;;8.10;78.80;;;;;;5027098;28;20026;-72
2020/12/04 12:19:41;;;;;;;0.25;0.05;;;8.10;78.80;;;;;;5028777;28;20045;-72
2020/12/04 12:22:08;;;;;;;0.95;0.10;;;8.10;78.50;;;;;;5024100;28;20419;-71
2020/12/04 12:24:36;;;;;;;0.40;0.10;;;8.10;78.50;;;;;;5022029;28;20022;-73
2020/12/04 12:27:02;;;;;;;1.45;0.20;;;8.00;78.40;;;;;;5020330;28;20018;-73
2020/12/04 12:29:27;;;;;;;0.82;0.10;;;8.00;78.60;;;;;;5031832;28;20029;-73
2020/12/04 12:31:53;;;;;;;0.38;0.10;;;8.00;78.90;;;;;;5031416;28;20072;-73
2020/12/04 12:34:19;;;;;;;1.77;0.05;;;8.00;79.20;;;;;;5029061;28;20104;-72
2020/12/04 12:36:44;;;;;;;1.13;0.10;;;7.90;79.10;;;;;;5030824;28;20021;-73
2020/12/04 12:39:10;;;;;;;0.50;0.10;;;8.00;79.50;;;;;;5030513;28;20067;-72
2020/12/04 12:41:35;;;;;;;1.92;0.10;;;7.90;79.60;;;;;;5028221;28;20041;-73
2020/12/04 12:44:01;;;;;;;0.57;0.10;;;7.90;79.60;;;;;;5029173;28;20030;-72
2020/12/04 12:46:26;;;;;;;1.23;0.20;;;7.90;79.80;;;;;;5029384;28;20041;-72
2020/12/04 12:48:52;;;;;;;0.45;0.10;;;8.00;80.10;;;;;;5028006;28;20391;-72
2020/12/04 12:51:18;;;;;;;1.05;0.10;;;8.00;80.30;;;;;;5021902;28;20026;-73
2020/12/04 12:53:43;;;;;;;1.80;0.10;;;8.20;80.20;;;;;;5026057;28;20033;-73
2020/12/04 12:56:09;;;;;;;1.92;0.10;;;8.20;79.00;;;;;;5028254;28;20443;-73
2020/12/04 12:58:34;;;;;;;0.60;0.10;;;8.20;78.60;;;;;;5033053;28;20026;-72